Terminal Aerodrome Forecast
Issued by NWS

Home | Current Version | Previous Version | Text Only | Print | Product List | Glossary Off
Versions: 1 2 3 4 5 6 7 8 9 10 11 12

845
FTUS44 KTSA 251120
TAFRVS
TAF
KRVS 251120Z 2512/2612 16004KT P6SM VCTS BKN070CB
     FM251700 10005KT P6SM SCT050 BKN250
     FM260000 08003KT P6SM BKN250=

USA.gov is the U.S. government's official web portal to all federal, state and local government web resources and services.